Airport ICAO


00:50 UTC

0°C

Clear skies


An affordable passengers' Moving Map for your aircraft. Made for the iPad and the iPhone
More information here

LFPM Villaroche


Melun FRANCE   VFR CAVOK


METAR LFPM 230030Z AUTO 02006KT 340V050 CAVOK M00/M06 Q1016 0h20min





NOTAMS

OPEN